createdAt,value
2018-03-21T00:01:58.599Z,67.99
2018-03-21T00:04:25.097Z,68.97
2018-03-21T00:06:52.061Z,69.50
2018-03-21T00:09:19.340Z,69.91
2018-03-21T00:11:46.173Z,69.02
2018-03-21T00:14:13.059Z,68.71
2018-03-21T00:16:42.209Z,67.79
2018-03-21T00:19:08.798Z,68.05
2018-03-21T00:21:35.813Z,67.00
2018-03-21T00:24:02.800Z,66.44
2018-03-21T00:26:29.428Z,67.21
2018-03-21T00:28:56.294Z,67.84
2018-03-21T00:31:22.941Z,67.64
2018-03-21T00:33:49.509Z,66.59
2018-03-21T00:36:16.793Z,66.36
2018-03-21T00:38:43.834Z,66.46
2018-03-21T00:41:11.040Z,68.94
2018-03-21T00:43:40.206Z,69.41
2018-03-21T00:46:07.743Z,68.24
2018-03-21T00:48:34.339Z,68.02
2018-03-21T00:51:01.298Z,67.75
2018-03-21T00:53:28.001Z,67.66
2018-03-21T00:55:54.885Z,68.52
2018-03-21T00:58:22.058Z,68.03
2018-03-21T01:00:48.852Z,67.39
2018-03-21T01:03:15.749Z,66.95
2018-03-21T01:05:42.842Z,67.07
2018-03-21T01:08:09.926Z,67.48
2018-03-21T01:10:36.611Z,66.97
2018-03-21T01:13:03.610Z,68.62
2018-03-21T01:15:30.454Z,68.12
2018-03-21T01:17:57.726Z,67.57
2018-03-21T01:20:24.206Z,67.39
2018-03-21T01:22:51.166Z,67.91
2018-03-21T01:25:18.601Z,67.97
2018-03-21T01:27:45.357Z,67.66
2018-03-21T01:30:12.303Z,66.76
2018-03-21T01:32:38.915Z,66.60
2018-03-21T01:35:05.600Z,66.38
2018-03-21T01:37:32.586Z,67.46
2018-03-21T01:39:59.456Z,67.42
2018-03-21T01:42:26.373Z,67.24
2018-03-21T01:44:53.426Z,66.98
2018-03-21T01:47:19.886Z,66.82
2018-03-21T01:49:47.000Z,66.40
2018-03-21T01:52:13.527Z,66.14
2018-03-21T01:54:40.504Z,66.63
2018-03-21T01:57:07.574Z,67.19
2018-03-21T01:59:34.943Z,66.91
2018-03-21T02:02:01.971Z,67.73
2018-03-21T02:04:28.832Z,67.92
2018-03-21T02:06:55.731Z,67.09
2018-03-21T02:09:22.438Z,68.31
2018-03-21T02:11:49.783Z,68.59
2018-03-21T02:14:16.581Z,68.02
2018-03-21T02:16:43.256Z,67.45
2018-03-21T02:19:09.918Z,67.82
2018-03-21T02:21:37.575Z,67.92
2018-03-21T02:24:04.923Z,68.78
2018-03-21T02:26:31.913Z,68.28
2018-03-21T02:28:58.583Z,68.62
2018-03-21T02:31:28.750Z,67.75
2018-03-21T02:33:57.147Z,69.51
2018-03-21T02:36:24.574Z,70.63
2018-03-21T02:38:51.191Z,69.51
2018-03-21T02:41:18.025Z,68.55
2018-03-21T02:43:45.008Z,68.65
2018-03-21T02:46:11.560Z,68.00
2018-03-21T02:48:38.594Z,68.49
2018-03-21T02:51:05.516Z,68.42
2018-03-21T02:53:32.222Z,71.74
2018-03-21T02:55:58.989Z,71.31
2018-03-21T02:58:25.935Z,71.01
2018-03-21T03:00:52.920Z,70.02
2018-03-21T03:03:19.709Z,69.35
2018-03-21T03:05:46.664Z,68.96
2018-03-21T03:08:13.292Z,69.83
2018-03-21T03:10:40.180Z,71.09
2018-03-21T03:13:09.176Z,70.95
2018-03-21T03:15:35.985Z,71.19
2018-03-21T03:18:02.786Z,70.23
2018-03-21T03:20:29.634Z,69.57
2018-03-21T03:22:56.518Z,70.57
2018-03-21T03:25:23.395Z,70.19
2018-03-21T03:27:50.086Z,69.95
2018-03-21T03:30:17.046Z,71.72
2018-03-21T03:32:43.802Z,71.23
2018-03-21T03:35:10.494Z,70.73
2018-03-21T03:40:11.128Z,71.22
2018-03-21T03:42:37.954Z,71.04
2018-03-21T03:45:04.538Z,70.75
2018-03-21T03:47:31.131Z,71.64
2018-03-21T03:49:57.897Z,70.65
2018-03-21T03:52:24.547Z,70.32
2018-03-21T03:54:51.403Z,71.20
2018-03-21T03:57:17.918Z,70.32
2018-03-21T03:59:45.070Z,71.39
2018-03-21T04:02:12.020Z,70.34
2018-03-21T04:04:38.569Z,69.85
2018-03-21T04:07:07.040Z,71.81
2018-03-21T04:09:33.704Z,71.79
2018-03-21T04:12:00.466Z,71.25
2018-03-21T04:14:29.150Z,70.60
2018-03-21T04:16:57.935Z,71.38
2018-03-21T04:19:24.898Z,70.91
2018-03-21T04:21:52.267Z,71.61
2018-03-21T04:24:19.349Z,71.31
2018-03-21T04:26:46.407Z,70.72
2018-03-21T04:29:14.516Z,70.68
2018-03-21T04:31:41.206Z,70.55
2018-03-21T04:34:10.519Z,69.64
2018-03-21T04:36:38.445Z,70.43
2018-03-21T04:39:07.312Z,71.84
2018-03-21T04:41:34.836Z,70.79
2018-03-21T04:44:02.022Z,72.32
2018-03-21T04:46:28.913Z,71.01
2018-03-21T04:48:57.600Z,70.68
2018-03-21T04:51:24.784Z,69.76
2018-03-21T04:53:51.638Z,70.11
2018-03-21T04:58:53.025Z,73.24
2018-03-21T05:01:19.854Z,72.35
2018-03-21T05:03:46.775Z,71.56
2018-03-21T05:06:13.861Z,70.96
2018-03-21T05:08:40.619Z,70.60
2018-03-21T05:11:08.028Z,70.41
2018-03-21T05:13:34.888Z,72.63
2018-03-21T05:16:02.155Z,71.52
2018-03-21T05:18:28.970Z,70.73
2018-03-21T05:20:55.838Z,72.17
2018-03-21T05:23:23.697Z,71.35
2018-03-21T05:25:50.679Z,71.17
2018-03-21T05:28:17.727Z,71.39
2018-03-21T05:30:44.788Z,71.19
2018-03-21T05:33:11.919Z,70.53
2018-03-21T05:35:39.293Z,71.45
2018-03-21T05:38:06.351Z,71.10
2018-03-21T05:40:33.167Z,70.44
2018-03-21T05:43:00.809Z,70.07
2018-03-21T05:45:27.647Z,70.32
2018-03-21T05:47:54.534Z,70.13
2018-03-21T05:50:22.879Z,70.31
2018-03-21T05:52:49.727Z,70.77
2018-03-21T05:55:17.691Z,71.23
2018-03-21T05:57:46.979Z,72.31
2018-03-21T06:00:14.631Z,71.27
2018-03-21T06:02:41.811Z,70.56
2018-03-21T06:05:08.757Z,70.60
2018-03-21T06:07:35.982Z,70.40
2018-03-21T06:10:02.983Z,70.49
2018-03-21T06:12:29.831Z,70.64
2018-03-21T06:14:56.887Z,71.00
2018-03-21T06:17:24.111Z,71.03
2018-03-21T06:19:50.794Z,71.91
2018-03-21T06:22:17.574Z,71.64
2018-03-21T06:24:44.278Z,71.09
2018-03-21T06:27:11.003Z,70.79
2018-03-21T06:29:38.266Z,71.32
2018-03-21T06:32:05.015Z,71.62
2018-03-21T06:34:32.823Z,71.21
2018-03-21T06:36:59.877Z,70.99
2018-03-21T06:39:26.749Z,70.71
2018-03-21T06:41:53.490Z,70.44
2018-03-21T06:44:20.145Z,71.00
2018-03-21T06:46:47.377Z,71.31
2018-03-21T06:49:14.989Z,72.23
2018-03-21T06:51:41.972Z,71.41
2018-03-21T06:54:09.263Z,70.92
2018-03-21T06:56:36.700Z,71.59
2018-03-21T06:59:03.753Z,72.02
2018-03-21T07:01:30.774Z,71.71
2018-03-21T07:03:57.744Z,72.45
2018-03-21T07:06:24.678Z,71.92
2018-03-21T07:08:51.203Z,71.07
2018-03-21T07:11:18.338Z,70.61
2018-03-21T07:13:57.295Z,70.01
2018-03-21T07:16:36.913Z,70.05
2018-03-21T07:19:03.862Z,70.34
2018-03-21T07:21:30.920Z,70.29
2018-03-21T07:23:57.934Z,70.65
2018-03-21T07:26:24.811Z,69.86
2018-03-21T07:28:51.653Z,69.68
2018-03-21T07:31:18.487Z,69.52
2018-03-21T07:33:45.567Z,71.76
2018-03-21T07:36:12.457Z,71.31
2018-03-21T07:38:39.628Z,71.98
2018-03-21T07:41:06.890Z,71.15
2018-03-21T07:43:34.206Z,70.48
2018-03-21T07:46:01.422Z,70.79
2018-03-21T07:48:28.349Z,69.83
2018-03-21T07:50:55.204Z,70.05
2018-03-21T07:53:21.827Z,69.59
2018-03-21T07:55:48.736Z,69.84
2018-03-21T07:58:15.841Z,69.30
2018-03-21T08:00:43.052Z,68.43
2018-03-21T08:03:09.904Z,67.64
2018-03-21T08:05:36.606Z,66.96
2018-03-21T08:08:03.798Z,66.87
2018-03-21T08:10:31.856Z,66.99
2018-03-21T08:12:58.941Z,67.39
2018-03-21T08:15:25.692Z,66.93
2018-03-21T08:17:53.217Z,66.63
2018-03-21T08:20:20.125Z,66.99
2018-03-21T08:22:46.872Z,68.24
2018-03-21T08:25:14.107Z,67.47
2018-03-21T08:27:41.187Z,67.26
2018-03-21T08:30:09.154Z,66.40
2018-03-21T08:32:36.076Z,66.71
2018-03-21T08:35:03.397Z,66.62
2018-03-21T08:37:30.794Z,67.73
2018-03-21T08:39:57.649Z,66.49
2018-03-21T08:42:24.485Z,66.40
2018-03-21T08:44:51.584Z,66.16
2018-03-21T08:47:18.435Z,66.50
2018-03-21T08:49:45.562Z,67.65
2018-03-21T08:52:12.314Z,67.82
2018-03-21T08:54:39.377Z,67.44
2018-03-21T08:57:06.190Z,64.11
2018-03-21T08:59:32.868Z,63.65
2018-03-21T09:01:59.572Z,63.94
2018-03-21T09:04:26.701Z,64.55
2018-03-21T09:06:53.945Z,65.27
2018-03-21T09:09:21.166Z,66.66
2018-03-21T09:11:48.421Z,66.91
2018-03-21T09:14:15.528Z,66.80
2018-03-21T09:16:42.620Z,66.46
2018-03-21T09:19:09.942Z,68.78
2018-03-21T09:21:37.057Z,67.88
2018-03-21T09:24:03.750Z,68.33
2018-03-21T09:26:30.809Z,68.69
2018-03-21T09:28:58.235Z,68.63
2018-03-21T09:31:25.770Z,66.65
2018-03-21T09:33:52.634Z,67.02
2018-03-21T09:36:19.855Z,67.19
2018-03-21T09:38:47.198Z,67.85
2018-03-21T09:41:13.987Z,68.33
2018-03-21T09:43:40.946Z,67.97
2018-03-21T09:46:07.651Z,67.24
2018-03-21T09:48:34.977Z,67.89
2018-03-21T09:51:01.813Z,69.51
2018-03-21T09:53:28.688Z,70.01
2018-03-21T09:55:56.368Z,68.41
2018-03-21T09:58:23.477Z,67.74
2018-03-21T10:00:50.416Z,67.98
2018-03-21T10:03:17.537Z,67.27
2018-03-21T10:05:44.383Z,67.54
2018-03-21T10:08:11.050Z,67.42
2018-03-21T10:10:37.894Z,66.48
2018-03-21T10:13:04.723Z,65.97
2018-03-21T10:15:31.570Z,66.71
2018-03-21T10:17:58.785Z,67.14
2018-03-21T10:20:25.934Z,67.01
2018-03-21T10:22:52.794Z,65.71
2018-03-21T10:25:19.537Z,66.37
2018-03-21T10:27:46.721Z,65.71
2018-03-21T10:30:13.524Z,66.21
2018-03-21T10:32:40.790Z,65.73
2018-03-21T10:35:09.289Z,65.17
2018-03-21T10:37:36.175Z,65.04
2018-03-21T10:40:03.318Z,64.90
2018-03-21T10:42:30.535Z,65.37
2018-03-21T10:44:57.469Z,65.49
2018-03-21T10:47:24.414Z,65.67
2018-03-21T10:49:51.421Z,65.20
2018-03-21T10:52:18.484Z,64.93
2018-03-21T10:54:45.922Z,66.93
2018-03-21T10:57:12.838Z,67.32
2018-03-21T10:59:39.662Z,65.88
2018-03-21T11:02:12.833Z,65.62
2018-03-21T11:04:39.811Z,65.65
2018-03-21T11:07:07.132Z,65.11
2018-03-21T11:09:34.187Z,65.27
2018-03-21T11:12:01.148Z,65.21
2018-03-21T11:14:28.179Z,66.14
2018-03-21T11:16:55.326Z,65.77
2018-03-21T11:19:22.378Z,65.72
2018-03-21T11:21:49.406Z,65.89
2018-03-21T11:24:16.393Z,67.04
2018-03-21T11:26:43.626Z,68.95
2018-03-21T11:29:11.747Z,68.18
2018-03-21T11:31:39.079Z,66.93
2018-03-21T11:34:07.118Z,65.82
2018-03-21T11:36:34.054Z,67.02
2018-03-21T11:39:01.309Z,66.27
2018-03-21T11:41:28.853Z,65.66
2018-03-21T11:43:55.992Z,65.49
2018-03-21T11:46:23.039Z,66.47
2018-03-21T11:48:50.180Z,65.64
2018-03-21T11:51:17.150Z,65.04
2018-03-21T11:53:44.812Z,64.94
2018-03-21T11:56:11.627Z,66.65
2018-03-21T11:58:38.561Z,66.47
2018-03-21T12:01:05.904Z,65.48
2018-03-21T12:03:32.717Z,65.05
2018-03-21T12:05:59.571Z,64.49
2018-03-21T12:08:33.188Z,64.10
2018-03-21T12:11:00.637Z,63.44
2018-03-21T12:13:27.867Z,63.88
2018-03-21T12:15:54.932Z,65.84
2018-03-21T12:18:23.051Z,65.05
2018-03-21T12:20:49.570Z,66.60
2018-03-21T12:23:16.501Z,68.06
2018-03-21T12:25:43.227Z,68.41
2018-03-21T12:28:10.149Z,69.39
2018-03-21T12:30:36.974Z,68.22
2018-03-21T12:33:04.718Z,66.34
2018-03-21T12:35:31.592Z,67.06
2018-03-21T12:37:58.341Z,68.83
2018-03-21T12:40:25.273Z,68.04
2018-03-21T12:42:51.933Z,70.10
2018-03-21T12:45:18.934Z,67.31
2018-03-21T12:47:45.879Z,70.37
2018-03-21T12:50:12.705Z,69.85
2018-03-21T12:52:39.454Z,71.29
2018-03-21T12:55:06.300Z,71.38
2018-03-21T12:57:33.614Z,71.62
2018-03-21T13:00:00.439Z,72.76
2018-03-21T13:02:27.162Z,71.72
2018-03-21T13:04:54.545Z,72.21
2018-03-21T13:07:21.265Z,71.87
2018-03-21T13:09:49.015Z,72.12
2018-03-21T13:12:15.626Z,71.39
2018-03-21T13:14:42.610Z,70.42
2018-03-21T13:17:09.686Z,69.79
2018-03-21T13:19:36.611Z,71.01
2018-03-21T13:22:03.200Z,71.82
2018-03-21T13:24:29.957Z,71.95
2018-03-21T13:26:57.098Z,72.22
2018-03-21T13:29:23.797Z,71.39
2018-03-21T13:31:50.351Z,71.50
2018-03-21T13:34:17.321Z,71.80
2018-03-21T13:36:44.066Z,71.24
2018-03-21T13:39:11.059Z,71.69
2018-03-21T13:41:37.702Z,70.37
2018-03-21T13:44:04.578Z,71.15
2018-03-21T13:46:31.498Z,71.01
2018-03-21T13:48:59.739Z,72.72
2018-03-21T13:51:27.035Z,72.41
2018-03-21T13:53:53.796Z,71.93
2018-03-21T13:56:20.655Z,71.71
2018-03-21T13:58:47.595Z,72.30
2018-03-21T14:01:14.344Z,71.93
2018-03-21T14:03:40.946Z,71.15
2018-03-21T14:06:08.451Z,71.08
2018-03-21T14:08:35.301Z,71.61
2018-03-21T14:11:02.692Z,70.42
2018-03-21T14:13:29.308Z,70.28
2018-03-21T14:15:55.947Z,69.04
2018-03-21T14:18:22.756Z,68.96
2018-03-21T14:20:50.113Z,68.92
2018-03-21T14:23:17.361Z,67.97
2018-03-21T14:25:44.202Z,66.23
2018-03-21T14:28:10.926Z,67.67
2018-03-21T14:30:37.659Z,65.64
2018-03-21T14:33:04.572Z,67.23
2018-03-21T14:35:31.466Z,68.77
2018-03-21T14:37:58.474Z,69.00
2018-03-21T14:40:25.410Z,69.78
2018-03-21T14:42:53.000Z,67.23
2018-03-21T14:45:19.960Z,66.89
2018-03-21T14:47:46.598Z,66.96
2018-03-21T14:50:13.525Z,68.94
2018-03-21T14:52:40.718Z,69.82
2018-03-21T14:55:08.147Z,67.84
2018-03-21T14:57:35.011Z,69.50
2018-03-21T15:00:02.149Z,68.01
2018-03-21T15:02:28.979Z,69.28
2018-03-21T15:04:55.755Z,68.06
2018-03-21T15:07:22.435Z,67.86
2018-03-21T15:09:49.206Z,66.24
2018-03-21T15:12:15.727Z,67.20
2018-03-21T15:14:42.386Z,67.71
2018-03-21T15:17:09.267Z,69.30
2018-03-21T15:19:36.483Z,69.18
2018-03-21T15:22:03.407Z,67.01
2018-03-21T15:24:29.925Z,67.26
2018-03-21T15:26:58.431Z,65.88
2018-03-21T15:29:25.516Z,65.94
2018-03-21T15:31:52.419Z,64.85
2018-03-21T15:34:19.335Z,65.82
2018-03-21T15:36:46.467Z,67.09
2018-03-21T15:39:14.027Z,67.12
2018-03-21T15:41:40.912Z,65.95
2018-03-21T15:44:08.647Z,66.22
2018-03-21T15:46:35.902Z,67.36
2018-03-21T15:49:02.735Z,67.00
2018-03-21T15:51:29.805Z,67.34
2018-03-21T15:53:56.678Z,66.33
2018-03-21T15:56:23.641Z,66.71
2018-03-21T15:58:50.498Z,66.04
2018-03-21T16:01:17.845Z,64.84
2018-03-21T16:03:44.456Z,65.04
2018-03-21T16:06:12.223Z,66.90
2018-03-21T16:08:39.052Z,64.59
2018-03-21T16:11:05.882Z,65.91
2018-03-21T16:13:33.240Z,65.21
2018-03-21T16:16:01.319Z,63.92
2018-03-21T16:18:28.714Z,67.69
2018-03-21T16:20:55.443Z,66.17
2018-03-21T16:23:22.155Z,65.63
2018-03-21T16:25:49.190Z,64.20
2018-03-21T16:28:16.341Z,63.09
2018-03-21T16:30:43.435Z,64.83
2018-03-21T16:33:10.435Z,63.87
2018-03-21T16:35:37.038Z,64.95
2018-03-21T16:38:04.201Z,66.02
2018-03-21T16:40:31.281Z,65.43
2018-03-21T16:42:57.984Z,63.59
2018-03-21T16:45:24.973Z,67.54
2018-03-21T16:47:54.203Z,67.69
2018-03-21T16:50:22.360Z,66.25
2018-03-21T16:52:49.483Z,68.10
2018-03-21T16:55:17.965Z,66.66
2018-03-21T16:57:50.700Z,67.13
2018-03-21T17:00:18.107Z,66.90
2018-03-21T17:02:45.394Z,68.07
2018-03-21T17:05:13.550Z,66.67
2018-03-21T17:07:40.320Z,67.55
2018-03-21T17:10:07.553Z,70.51
2018-03-21T17:12:35.921Z,68.25
2018-03-21T17:15:03.479Z,67.73
2018-03-21T17:17:30.021Z,66.26
2018-03-21T17:19:57.226Z,68.26
2018-03-21T17:22:23.666Z,67.82
2018-03-21T17:24:50.423Z,67.11
2018-03-21T17:27:17.336Z,67.25
2018-03-21T17:29:44.924Z,69.83
2018-03-21T17:32:11.470Z,69.09
2018-03-21T17:34:38.638Z,67.68
2018-03-21T17:37:05.983Z,69.53
2018-03-21T17:39:32.972Z,68.08
2018-03-21T17:41:59.574Z,69.70
2018-03-21T17:44:26.245Z,69.84
2018-03-21T17:46:52.726Z,68.59
2018-03-21T17:49:20.074Z,68.51
2018-03-21T17:51:47.612Z,68.21
2018-03-21T17:54:14.984Z,69.84
2018-03-21T17:56:42.186Z,67.57
2018-03-21T17:59:09.664Z,68.40
2018-03-21T18:01:36.524Z,68.24
2018-03-21T18:04:03.138Z,70.68
2018-03-21T18:06:30.125Z,69.76
2018-03-21T18:08:57.373Z,68.75
2018-03-21T18:11:25.810Z,70.76
2018-03-21T18:13:52.870Z,68.80
2018-03-21T18:16:19.763Z,68.83
2018-03-21T18:18:46.593Z,68.35
2018-03-21T18:21:13.695Z,67.31
2018-03-21T18:23:41.033Z,70.82
2018-03-21T18:26:08.501Z,70.39
2018-03-21T18:28:35.245Z,71.16
2018-03-21T18:31:02.692Z,72.38
2018-03-21T18:33:29.541Z,72.02
2018-03-21T18:35:56.487Z,72.70
2018-03-21T18:38:23.593Z,71.90
2018-03-21T18:40:51.889Z,73.29
2018-03-21T18:43:20.608Z,72.61
2018-03-21T18:45:48.564Z,74.75
2018-03-21T18:48:15.960Z,75.82
2018-03-21T18:50:44.211Z,72.13
2018-03-21T18:53:11.052Z,72.07
2018-03-21T18:55:38.222Z,71.77
2018-03-21T18:58:04.833Z,70.25
2018-03-21T19:00:31.621Z,71.90
2018-03-21T19:02:59.713Z,73.90
2018-03-21T19:05:26.310Z,72.38
2018-03-21T19:07:53.328Z,70.69
2018-03-21T19:10:20.493Z,68.97
2018-03-21T19:12:47.925Z,71.06
2018-03-21T19:15:16.120Z,69.85
2018-03-21T19:17:45.830Z,71.17
2018-03-21T19:20:20.715Z,69.96
2018-03-21T19:22:48.325Z,68.85
2018-03-21T19:25:16.425Z,69.39
2018-03-21T19:27:43.874Z,70.25
2018-03-21T19:30:11.490Z,70.35
2018-03-21T19:32:38.593Z,70.03
2018-03-21T19:35:05.713Z,70.77
2018-03-21T19:37:32.510Z,69.92
2018-03-21T19:40:00.240Z,69.94
2018-03-21T19:42:27.054Z,70.51
2018-03-21T19:44:54.996Z,68.45
2018-03-21T19:47:22.294Z,68.49
2018-03-21T19:49:49.768Z,67.64
2018-03-21T19:52:17.644Z,69.69
2018-03-21T19:54:45.282Z,68.46
2018-03-21T19:57:12.836Z,67.67
2018-03-21T19:59:39.730Z,68.43
2018-03-21T20:02:07.053Z,68.15
2018-03-21T20:04:34.225Z,67.69
2018-03-21T20:07:01.362Z,70.52
2018-03-21T20:09:27.947Z,69.94
2018-03-21T20:11:55.185Z,71.07
2018-03-21T20:14:22.862Z,72.19
2018-03-21T20:16:50.254Z,70.82
2018-03-21T20:19:18.659Z,70.08
2018-03-21T20:21:46.003Z,71.40
2018-03-21T20:24:13.122Z,71.58
2018-03-21T20:26:39.991Z,72.45
2018-03-21T20:29:07.395Z,74.29
2018-03-21T20:31:34.590Z,75.88
2018-03-21T20:34:01.996Z,75.14
2018-03-21T20:36:31.003Z,76.61
2018-03-21T20:38:58.495Z,76.58
2018-03-21T20:41:25.694Z,79.10
2018-03-21T20:43:52.871Z,78.34
2018-03-21T20:46:20.087Z,79.77
2018-03-21T20:48:47.159Z,77.50
2018-03-21T20:51:13.997Z,78.67
2018-03-21T20:53:40.886Z,78.79
2018-03-21T20:56:08.217Z,78.08
2018-03-21T20:58:35.258Z,77.92
2018-03-21T21:01:02.207Z,78.68
2018-03-21T21:03:29.156Z,77.28
2018-03-21T21:05:55.818Z,78.55
2018-03-21T21:08:23.904Z,77.63
2018-03-21T21:10:50.547Z,78.44
2018-03-21T21:13:17.762Z,77.79
2018-03-21T21:15:44.546Z,76.45
2018-03-21T21:18:12.087Z,75.65
2018-03-21T21:20:38.974Z,74.27
2018-03-21T21:23:05.854Z,74.09
2018-03-21T21:25:32.590Z,74.38
2018-03-21T21:27:59.862Z,73.32
2018-03-21T21:30:26.612Z,75.03
2018-03-21T21:32:54.457Z,73.18
2018-03-21T21:35:21.106Z,74.02
2018-03-21T21:37:49.053Z,73.92
2018-03-21T21:40:16.081Z,74.75
2018-03-21T21:42:42.896Z,75.50
2018-03-21T21:45:09.930Z,75.69
2018-03-21T21:47:36.729Z,74.92
2018-03-21T21:50:03.382Z,75.24
2018-03-21T21:52:30.603Z,73.75
2018-03-21T21:54:57.521Z,73.01
2018-03-21T21:57:24.538Z,72.72
2018-03-21T21:59:51.328Z,73.91
2018-03-21T22:02:18.428Z,72.85
2018-03-21T22:04:45.756Z,73.04
2018-03-21T22:07:12.765Z,72.88
2018-03-21T22:09:40.078Z,72.41
2018-03-21T22:12:07.057Z,71.38
2018-03-21T22:14:34.031Z,71.83
2018-03-21T22:17:02.622Z,70.31
2018-03-21T22:19:29.484Z,71.74
2018-03-21T22:21:56.227Z,71.53
2018-03-21T22:24:23.342Z,71.44
2018-03-21T22:26:50.278Z,70.99
2018-03-21T22:29:17.111Z,72.35
2018-03-21T22:31:44.007Z,71.37
2018-03-21T22:34:18.737Z,73.42
2018-03-21T22:36:45.458Z,71.91
2018-03-21T22:39:12.885Z,71.81
2018-03-21T22:41:40.318Z,72.10
2018-03-21T22:44:07.774Z,72.37
2018-03-21T22:46:34.574Z,70.92
2018-03-21T22:49:01.918Z,69.33
2018-03-21T22:51:29.728Z,70.55
2018-03-21T22:53:56.693Z,70.22
2018-03-21T22:56:23.635Z,70.89
2018-03-21T22:58:51.500Z,69.37
2018-03-21T23:01:18.451Z,68.71
2018-03-21T23:03:46.069Z,69.83
2018-03-21T23:06:13.379Z,70.73
2018-03-21T23:08:40.939Z,69.90
2018-03-21T23:11:08.335Z,69.15
2018-03-21T23:13:36.277Z,70.01
2018-03-21T23:16:03.699Z,68.71
2018-03-21T23:18:31.106Z,68.92
2018-03-21T23:20:57.703Z,69.81
2018-03-21T23:23:24.511Z,69.58
2018-03-21T23:25:51.939Z,70.92
2018-03-21T23:28:19.865Z,69.63
2018-03-21T23:30:48.772Z,70.23
2018-03-21T23:33:16.301Z,70.04
2018-03-21T23:35:43.353Z,70.94
2018-03-21T23:38:10.121Z,73.37
2018-03-21T23:40:38.151Z,72.84
2018-03-21T23:43:04.766Z,73.97
2018-03-21T23:45:31.526Z,75.13
2018-03-21T23:48:05.970Z,74.13
2018-03-21T23:50:33.050Z,73.24
2018-03-21T23:53:00.191Z,72.11
2018-03-21T23:55:26.865Z,74.01
2018-03-21T23:57:53.750Z,73.13
